sensor_id;sensor_type;location;lat;lon;timestamp;pressure;altitude;pressure_sealevel;temperature;humidity
52935;BME280;38802;50.198;19.796;2022-11-20T00:01:33;95843.60;;;-6.47;86.33
52935;BME280;38802;50.198;19.796;2022-11-20T00:04:01;95846.11;;;-6.46;86.39
52935;BME280;38802;50.198;19.796;2022-11-20T00:06:29;95843.94;;;-6.46;86.43
52935;BME280;38802;50.198;19.796;2022-11-20T00:08:59;95845.28;;;-6.46;86.51
52935;BME280;38802;50.198;19.796;2022-11-20T00:11:29;95852.02;;;-6.46;86.40
52935;BME280;38802;50.198;19.796;2022-11-20T00:14:00;95853.58;;;-6.46;86.39
52935;BME280;38802;50.198;19.796;2022-11-20T00:16:31;95853.92;;;-6.47;86.36
52935;BME280;38802;50.198;19.796;2022-11-20T00:18:59;95850.04;;;-6.47;86.39
52935;BME280;38802;50.198;19.796;2022-11-20T00:21:28;95841.43;;;-6.48;86.19
52935;BME280;38802;50.198;19.796;2022-11-20T00:23:58;95834.70;;;-6.49;86.40
52935;BME280;38802;50.198;19.796;2022-11-20T00:26:27;95830.80;;;-6.49;86.39
52935;BME280;38802;50.198;19.796;2022-11-20T00:28:59;95821.17;;;-6.49;86.48
52935;BME280;38802;50.198;19.796;2022-11-20T00:31:28;95820.35;;;-6.50;86.41
52935;BME280;38802;50.198;19.796;2022-11-20T00:33:57;95817.30;;;-6.51;86.40
52935;BME280;38802;50.198;19.796;2022-11-20T00:36:26;95822.39;;;-6.51;86.38
52935;BME280;38802;50.198;19.796;2022-11-20T00:38:57;95827.47;;;-6.52;86.34
52935;BME280;38802;50.198;19.796;2022-11-20T00:41:28;95822.06;;;-6.52;86.37
52935;BME280;38802;50.198;19.796;2022-11-20T00:43:57;95826.69;;;-6.55;86.23
52935;BME280;38802;50.198;19.796;2022-11-20T00:46:26;95826.74;;;-6.57;86.27
52935;BME280;38802;50.198;19.796;2022-11-20T00:48:56;95823.63;;;-6.61;86.42
52935;BME280;38802;50.198;19.796;2022-11-20T00:51:26;95832.77;;;-6.62;86.16
52935;BME280;38802;50.198;19.796;2022-11-20T00:53:56;95827.64;;;-6.67;86.15
52935;BME280;38802;50.198;19.796;2022-11-20T00:56:24;95827.35;;;-6.69;86.22
52935;BME280;38802;50.198;19.796;2022-11-20T00:58:52;95825.32;;;-6.70;86.40
52935;BME280;38802;50.198;19.796;2022-11-20T01:01:23;95818.60;;;-6.71;86.25
52935;BME280;38802;50.198;19.796;2022-11-20T01:03:59;95818.79;;;-6.72;86.28
52935;BME280;38802;50.198;19.796;2022-11-20T01:06:30;95819.14;;;-6.72;86.23
52935;BME280;38802;50.198;19.796;2022-11-20T01:09:01;95817.09;;;-6.72;86.36
52935;BME280;38802;50.198;19.796;2022-11-20T01:11:33;95819.42;;;-6.70;86.26
52935;BME280;38802;50.198;19.796;2022-11-20T01:14:03;95815.85;;;-6.69;86.58
52935;BME280;38802;50.198;19.796;2022-11-20T01:16:35;95813.47;;;-6.68;86.37
52935;BME280;38802;50.198;19.796;2022-11-20T01:19:06;95810.04;;;-6.66;86.72
52935;BME280;38802;50.198;19.796;2022-11-20T01:21:37;95807.77;;;-6.62;86.50
52935;BME280;38802;50.198;19.796;2022-11-20T01:24:07;95803.84;;;-6.61;86.69
52935;BME280;38802;50.198;19.796;2022-11-20T01:26:38;95798.07;;;-6.60;86.66
52935;BME280;38802;50.198;19.796;2022-11-20T01:29:08;95798.53;;;-6.57;86.55
52935;BME280;38802;50.198;19.796;2022-11-20T01:31:38;95792.23;;;-6.56;86.45
52935;BME280;38802;50.198;19.796;2022-11-20T01:34:11;95794.41;;;-6.55;86.72
52935;BME280;38802;50.198;19.796;2022-11-20T01:36:40;95790.86;;;-6.55;86.73
52935;BME280;38802;50.198;19.796;2022-11-20T01:39:23;95789.64;;;-6.53;86.64
52935;BME280;38802;50.198;19.796;2022-11-20T01:41:53;95792.65;;;-6.52;86.57
52935;BME280;38802;50.198;19.796;2022-11-20T01:44:56;95790.27;;;-6.50;86.59
52935;BME280;38802;50.198;19.796;2022-11-20T01:47:30;95788.08;;;-6.50;86.60
52935;BME280;38802;50.198;19.796;2022-11-20T01:50:12;95792.96;;;-6.49;86.59
52935;BME280;38802;50.198;19.796;2022-11-20T01:52:55;95789.56;;;-6.49;86.47
52935;BME280;38802;50.198;19.796;2022-11-20T01:55:28;95788.88;;;-6.47;86.69
52935;BME280;38802;50.198;19.796;2022-11-20T01:57:57;95787.98;;;-6.46;86.71
52935;BME280;38802;50.198;19.796;2022-11-20T02:00:26;95783.23;;;-6.45;86.75
52935;BME280;38802;50.198;19.796;2022-11-20T02:03:01;95781.66;;;-6.43;86.77
52935;BME280;38802;50.198;19.796;2022-11-20T02:05:32;95778.42;;;-6.42;86.67
52935;BME280;38802;50.198;19.796;2022-11-20T02:08:03;95781.86;;;-6.44;86.69
52935;BME280;38802;50.198;19.796;2022-11-20T02:10:33;95786.09;;;-6.45;86.70
52935;BME280;38802;50.198;19.796;2022-11-20T02:13:01;95787.62;;;-6.45;86.71
52935;BME280;38802;50.198;19.796;2022-11-20T02:15:49;95789.98;;;-6.44;86.61
52935;BME280;38802;50.198;19.796;2022-11-20T02:18:19;95789.61;;;-6.43;86.62
52935;BME280;38802;50.198;19.796;2022-11-20T02:20:52;95784.04;;;-6.43;86.46
52935;BME280;38802;50.198;19.796;2022-11-20T02:26:01;95799.05;;;-6.42;86.72
52935;BME280;38802;50.198;19.796;2022-11-20T02:28:31;95803.92;;;-6.41;86.61
52935;BME280;38802;50.198;19.796;2022-11-20T02:30:59;95800.91;;;-6.42;86.57
52935;BME280;38802;50.198;19.796;2022-11-20T02:33:28;95805.79;;;-6.41;86.79
52935;BME280;38802;50.198;19.796;2022-11-20T02:35:56;95810.17;;;-6.41;86.88
52935;BME280;38802;50.198;19.796;2022-11-20T02:38:24;95816.45;;;-6.42;86.63
52935;BME280;38802;50.198;19.796;2022-11-20T02:40:52;95816.80;;;-6.42;86.56
52935;BME280;38802;50.198;19.796;2022-11-20T02:43:23;95815.11;;;-6.43;86.76
52935;BME280;38802;50.198;19.796;2022-11-20T02:45:51;95812.91;;;-6.42;86.76
52935;BME280;38802;50.198;19.796;2022-11-20T02:48:19;95813.23;;;-6.41;86.67
52935;BME280;38802;50.198;19.796;2022-11-20T02:50:47;95807.84;;;-6.42;86.62
52935;BME280;38802;50.198;19.796;2022-11-20T02:53:15;95803.59;;;-6.41;86.54
52935;BME280;38802;50.198;19.796;2022-11-20T02:55:43;95804.29;;;-6.42;86.60
52935;BME280;38802;50.198;19.796;2022-11-20T02:58:11;95808.20;;;-6.43;86.66
52935;BME280;38802;50.198;19.796;2022-11-20T03:00:39;95809.20;;;-6.42;86.60
52935;BME280;38802;50.198;19.796;2022-11-20T03:03:07;95811.39;;;-6.42;86.62
52935;BME280;38802;50.198;19.796;2022-11-20T03:05:35;95805.83;;;-6.43;86.70
52935;BME280;38802;50.198;19.796;2022-11-20T03:08:04;95803.13;;;-6.43;86.66
52935;BME280;38802;50.198;19.796;2022-11-20T03:10:32;95799.23;;;-6.43;86.71
52935;BME280;38802;50.198;19.796;2022-11-20T03:13:00;95793.31;;;-6.42;86.60
52935;BME280;38802;50.198;19.796;2022-11-20T03:15:30;95786.90;;;-6.43;86.79
52935;BME280;38802;50.198;19.796;2022-11-20T03:17:58;95786.23;;;-6.43;86.56
52935;BME280;38802;50.198;19.796;2022-11-20T03:20:26;95785.91;;;-6.44;86.54
52935;BME280;38802;50.198;19.796;2022-11-20T03:22:55;95790.14;;;-6.44;86.73
52935;BME280;38802;50.198;19.796;2022-11-20T03:25:23;95796.22;;;-6.44;86.80
52935;BME280;38802;50.198;19.796;2022-11-20T03:27:51;95799.11;;;-6.45;86.71
52935;BME280;38802;50.198;19.796;2022-11-20T03:30:20;95797.11;;;-6.46;86.58
52935;BME280;38802;50.198;19.796;2022-11-20T03:32:53;95794.78;;;-6.48;86.68
52935;BME280;38802;50.198;19.796;2022-11-20T03:35:21;95793.96;;;-6.49;86.61
52935;BME280;38802;50.198;19.796;2022-11-20T03:37:51;95791.41;;;-6.48;86.77
52935;BME280;38802;50.198;19.796;2022-11-20T03:40:19;95791.23;;;-6.47;86.59
52935;BME280;38802;50.198;19.796;2022-11-20T03:42:47;95786.83;;;-6.47;86.72
52935;BME280;38802;50.198;19.796;2022-11-20T03:45:16;95784.11;;;-6.46;86.74
52935;BME280;38802;50.198;19.796;2022-11-20T03:47:45;95783.20;;;-6.44;86.90
52935;BME280;38802;50.198;19.796;2022-11-20T03:50:13;95780.11;;;-6.42;86.88
52935;BME280;38802;50.198;19.796;2022-11-20T03:52:42;95776.02;;;-6.41;87.00
52935;BME280;38802;50.198;19.796;2022-11-20T03:55:10;95777.04;;;-6.40;86.96
52935;BME280;38802;50.198;19.796;2022-11-20T03:57:39;95773.67;;;-6.41;86.78
52935;BME280;38802;50.198;19.796;2022-11-20T04:00:07;95769.28;;;-6.42;86.60
52935;BME280;38802;50.198;19.796;2022-11-20T04:02:35;95756.56;;;-6.47;86.63
52935;BME280;38802;50.198;19.796;2022-11-20T04:05:04;95758.36;;;-6.44;86.63
52935;BME280;38802;50.198;19.796;2022-11-20T04:07:33;95752.96;;;-6.44;86.64
52935;BME280;38802;50.198;19.796;2022-11-20T04:10:02;95758.22;;;-6.45;86.68
52935;BME280;38802;50.198;19.796;2022-11-20T04:12:33;95763.95;;;-6.45;86.69
52935;BME280;38802;50.198;19.796;2022-11-20T04:15:01;95761.43;;;-6.45;86.93
52935;BME280;38802;50.198;19.796;2022-11-20T04:17:29;95761.27;;;-6.45;86.93
52935;BME280;38802;50.198;19.796;2022-11-20T04:19:58;95756.36;;;-6.45;86.87
52935;BME280;38802;50.198;19.796;2022-11-20T04:22:27;95755.17;;;-6.44;86.90
52935;BME280;38802;50.198;19.796;2022-11-20T04:24:55;95755.80;;;-6.43;86.78
52935;BME280;38802;50.198;19.796;2022-11-20T04:27:23;95755.92;;;-6.41;86.93
52935;BME280;38802;50.198;19.796;2022-11-20T04:29:51;95757.27;;;-6.41;86.84
52935;BME280;38802;50.198;19.796;2022-11-20T04:32:19;95757.74;;;-6.39;87.01
52935;BME280;38802;50.198;19.796;2022-11-20T04:34:47;95756.02;;;-6.38;87.15
52935;BME280;38802;50.198;19.796;2022-11-20T04:37:15;95754.66;;;-6.38;86.96
52935;BME280;38802;50.198;19.796;2022-11-20T04:39:43;95756.02;;;-6.38;86.67
52935;BME280;38802;50.198;19.796;2022-11-20T04:42:11;95753.32;;;-6.38;86.81
52935;BME280;38802;50.198;19.796;2022-11-20T04:44:58;95750.75;;;-6.37;86.94
52935;BME280;38802;50.198;19.796;2022-11-20T04:47:26;95751.06;;;-6.36;87.03
52935;BME280;38802;50.198;19.796;2022-11-20T04:49:54;95747.15;;;-6.35;86.97
52935;BME280;38802;50.198;19.796;2022-11-20T04:52:22;95744.63;;;-6.35;86.91
52935;BME280;38802;50.198;19.796;2022-11-20T04:54:50;95742.59;;;-6.35;86.92
52935;BME280;38802;50.198;19.796;2022-11-20T04:57:20;95739.22;;;-6.35;86.91
52935;BME280;38802;50.198;19.796;2022-11-20T04:59:49;95736.17;;;-6.35;86.87
52935;BME280;38802;50.198;19.796;2022-11-20T05:02:17;95736.52;;;-6.35;86.83
52935;BME280;38802;50.198;19.796;2022-11-20T05:04:45;95735.84;;;-6.36;86.90
52935;BME280;38802;50.198;19.796;2022-11-20T05:07:14;95733.31;;;-6.36;86.80
52935;BME280;38802;50.198;19.796;2022-11-20T05:09:42;95729.58;;;-6.35;87.11
52935;BME280;38802;50.198;19.796;2022-11-20T05:12:10;95728.51;;;-6.32;87.20
52935;BME280;38802;50.198;19.796;2022-11-20T05:14:38;95728.60;;;-6.29;87.24
52935;BME280;38802;50.198;19.796;2022-11-20T05:17:10;95727.23;;;-6.29;87.07
52935;BME280;38802;50.198;19.796;2022-11-20T05:19:38;95728.44;;;-6.30;86.98
52935;BME280;38802;50.198;19.796;2022-11-20T05:22:06;95730.29;;;-6.29;86.86
52935;BME280;38802;50.198;19.796;2022-11-20T05:24:34;95732.15;;;-6.29;86.94
52935;BME280;38802;50.198;19.796;2022-11-20T05:27:02;95727.60;;;-6.30;86.93
52935;BME280;38802;50.198;19.796;2022-11-20T05:29:30;95729.46;;;-6.30;86.95
52935;BME280;38802;50.198;19.796;2022-11-20T05:31:58;95729.48;;;-6.31;87.02
52935;BME280;38802;50.198;19.796;2022-11-20T05:34:26;95734.21;;;-6.31;86.78
52935;BME280;38802;50.198;19.796;2022-11-20T05:36:55;95728.27;;;-6.30;86.98
52935;BME280;38802;50.198;19.796;2022-11-20T05:39:23;95728.58;;;-6.29;87.02
52935;BME280;38802;50.198;19.796;2022-11-20T05:41:52;95720.98;;;-6.29;87.02
52935;BME280;38802;50.198;19.796;2022-11-20T05:44:40;95716.70;;;-6.27;87.04
52935;BME280;38802;50.198;19.796;2022-11-20T05:47:08;95711.41;;;-6.25;87.17
52935;BME280;38802;50.198;19.796;2022-11-20T05:49:36;95711.90;;;-6.24;87.31
52935;BME280;38802;50.198;19.796;2022-11-20T05:52:04;95711.02;;;-6.23;87.09
52935;BME280;38802;50.198;19.796;2022-11-20T05:54:32;95710.50;;;-6.22;87.14
52935;BME280;38802;50.198;19.796;2022-11-20T05:57:00;95708.14;;;-6.23;86.98
52935;BME280;38802;50.198;19.796;2022-11-20T05:59:28;95709.81;;;-6.22;86.95
52935;BME280;38802;50.198;19.796;2022-11-20T06:01:56;95709.10;;;-6.21;87.07
52935;BME280;38802;50.198;19.796;2022-11-20T06:04:24;95708.26;;;-6.21;87.13
52935;BME280;38802;50.198;19.796;2022-11-20T06:06:53;95706.02;;;-6.19;87.14
52935;BME280;38802;50.198;19.796;2022-11-20T06:09:21;95705.55;;;-6.20;86.97
52935;BME280;38802;50.198;19.796;2022-11-20T06:11:49;95702.30;;;-6.19;87.02
52935;BME280;38802;50.198;19.796;2022-11-20T06:14:18;95708.86;;;-6.18;87.17
52935;BME280;38802;50.198;19.796;2022-11-20T06:16:46;95711.05;;;-6.18;86.94
52935;BME280;38802;50.198;19.796;2022-11-20T06:19:14;95708.00;;;-6.17;87.10
52935;BME280;38802;50.198;19.796;2022-11-20T06:21:43;95708.67;;;-6.17;87.08
52935;BME280;38802;50.198;19.796;2022-11-20T06:24:11;95713.08;;;-6.18;87.08
52935;BME280;38802;50.198;19.796;2022-11-20T06:26:39;95716.31;;;-6.19;86.87
52935;BME280;38802;50.198;19.796;2022-11-20T06:29:07;95713.48;;;-6.20;87.03
52935;BME280;38802;50.198;19.796;2022-11-20T06:31:36;95711.80;;;-6.20;87.05
52935;BME280;38802;50.198;19.796;2022-11-20T06:34:06;95712.42;;;-6.18;87.12
52935;BME280;38802;50.198;19.796;2022-11-20T06:36:34;95707.46;;;-6.17;87.07
52935;BME280;38802;50.198;19.796;2022-11-20T06:39:03;95705.94;;;-6.16;86.92
52935;BME280;38802;50.198;19.796;2022-11-20T06:41:31;95705.75;;;-6.16;87.26
52935;BME280;38802;50.198;19.796;2022-11-20T06:43:59;95706.38;;;-6.13;87.06
52935;BME280;38802;50.198;19.796;2022-11-20T06:46:28;95704.81;;;-6.12;87.02
52935;BME280;38802;50.198;19.796;2022-11-20T06:48:56;95701.91;;;-6.11;87.20
52935;BME280;38802;50.198;19.796;2022-11-20T06:51:24;95705.57;;;-6.09;87.08
52935;BME280;38802;50.198;19.796;2022-11-20T06:53:52;95706.84;;;-6.05;87.37
52935;BME280;38802;50.198;19.796;2022-11-20T06:56:21;95702.71;;;-6.02;87.23
52935;BME280;38802;50.198;19.796;2022-11-20T06:58:49;95700.47;;;-6.00;87.30
52935;BME280;38802;50.198;19.796;2022-11-20T07:01:17;95697.15;;;-5.96;87.14
52935;BME280;38802;50.198;19.796;2022-11-20T07:03:48;95699.30;;;-5.94;87.41
52935;BME280;38802;50.198;19.796;2022-11-20T07:06:21;95698.89;;;-5.91;87.48
52935;BME280;38802;50.198;19.796;2022-11-20T07:08:52;95698.80;;;-5.88;87.22
52935;BME280;38802;50.198;19.796;2022-11-20T07:11:20;95697.64;;;-5.84;87.41
52935;BME280;38802;50.198;19.796;2022-11-20T07:13:49;95695.31;;;-5.79;87.39
52935;BME280;38802;50.198;19.796;2022-11-20T07:16:17;95692.15;;;-5.75;87.74
52935;BME280;38802;50.198;19.796;2022-11-20T07:18:45;95701.48;;;-5.71;87.45
52935;BME280;38802;50.198;19.796;2022-11-20T07:21:18;95699.83;;;-5.65;87.37
52935;BME280;38802;50.198;19.796;2022-11-20T07:23:46;95705.40;;;-5.58;87.46
52935;BME280;38802;50.198;19.796;2022-11-20T07:26:14;95701.66;;;-5.52;87.98
52935;BME280;38802;50.198;19.796;2022-11-20T07:28:45;95695.89;;;-5.45;87.93
52935;BME280;38802;50.198;19.796;2022-11-20T07:31:13;95697.88;;;-5.38;87.98
52935;BME280;38802;50.198;19.796;2022-11-20T07:33:46;95695.81;;;-5.31;88.23
52935;BME280;38802;50.198;19.796;2022-11-20T07:36:14;95693.73;;;-5.23;88.09
52935;BME280;38802;50.198;19.796;2022-11-20T07:38:42;95693.05;;;-5.17;87.89
52935;BME280;38802;50.198;19.796;2022-11-20T07:41:10;95692.54;;;-5.11;88.08
52935;BME280;38802;50.198;19.796;2022-11-20T07:43:38;95694.54;;;-5.05;87.73
52935;BME280;38802;50.198;19.796;2022-11-20T07:46:08;95697.70;;;-4.97;87.57
52935;BME280;38802;50.198;19.796;2022-11-20T07:48:36;95695.61;;;-4.90;88.23
52935;BME280;38802;50.198;19.796;2022-11-20T07:51:04;95699.77;;;-4.82;88.50
52935;BME280;38802;50.198;19.796;2022-11-20T07:53:33;95703.11;;;-4.74;88.65
52935;BME280;38802;50.198;19.796;2022-11-20T07:56:02;95707.86;;;-4.64;88.78
52935;BME280;38802;50.198;19.796;2022-11-20T07:58:31;95708.77;;;-4.55;88.33
52935;BME280;38802;50.198;19.796;2022-11-20T08:01:05;95711.58;;;-4.47;88.45
52935;BME280;38802;50.198;19.796;2022-11-20T08:03:34;95713.71;;;-4.40;88.32
52935;BME280;38802;50.198;19.796;2022-11-20T08:06:02;95712.61;;;-4.32;88.19
52935;BME280;38802;50.198;19.796;2022-11-20T08:08:31;95718.93;;;-4.23;88.13
52935;BME280;38802;50.198;19.796;2022-11-20T08:11:01;95719.81;;;-4.14;88.04
52935;BME280;38802;50.198;19.796;2022-11-20T08:13:48;95722.23;;;-4.04;87.89
52935;BME280;38802;50.198;19.796;2022-11-20T08:16:34;95725.81;;;-3.95;87.84
52935;BME280;38802;50.198;19.796;2022-11-20T08:19:02;95722.37;;;-3.88;88.04
52935;BME280;38802;50.198;19.796;2022-11-20T08:21:31;95723.13;;;-3.80;88.22
52935;BME280;38802;50.198;19.796;2022-11-20T08:24:05;95720.78;;;-3.71;88.01
52935;BME280;38802;50.198;19.796;2022-11-20T08:26:34;95715.98;;;-3.65;88.24
52935;BME280;38802;50.198;19.796;2022-11-20T08:29:04;95714.91;;;-3.59;87.55
52935;BME280;38802;50.198;19.796;2022-11-20T08:31:33;95710.46;;;-3.54;88.12
52935;BME280;38802;50.198;19.796;2022-11-20T08:34:21;95708.02;;;-3.47;88.11
52935;BME280;38802;50.198;19.796;2022-11-20T08:36:49;95704.96;;;-3.41;87.77
52935;BME280;38802;50.198;19.796;2022-11-20T08:39:17;95706.16;;;-3.37;88.06
52935;BME280;38802;50.198;19.796;2022-11-20T08:41:45;95701.71;;;-3.32;87.86
52935;BME280;38802;50.198;19.796;2022-11-20T08:44:13;95697.60;;;-3.26;87.81
52935;BME280;38802;50.198;19.796;2022-11-20T08:46:42;95694.38;;;-3.22;87.68
52935;BME280;38802;50.198;19.796;2022-11-20T08:49:12;95692.42;;;-3.20;87.00
52935;BME280;38802;50.198;19.796;2022-11-20T08:51:42;95692.35;;;-3.18;86.99
52935;BME280;38802;50.198;19.796;2022-11-20T08:54:10;95693.05;;;-3.14;87.33
52935;BME280;38802;50.198;19.796;2022-11-20T08:56:39;95691.65;;;-3.08;87.39
52935;BME280;38802;50.198;19.796;2022-11-20T08:59:07;95686.36;;;-3.03;87.46
52935;BME280;38802;50.198;19.796;2022-11-20T09:01:55;95689.85;;;-2.96;87.53
52935;BME280;38802;50.198;19.796;2022-11-20T09:04:23;95693.73;;;-2.91;87.33
52935;BME280;38802;50.198;19.796;2022-11-20T09:06:51;95694.60;;;-2.87;86.97
52935;BME280;38802;50.198;19.796;2022-11-20T09:09:19;95692.88;;;-2.82;87.08
52935;BME280;38802;50.198;19.796;2022-11-20T09:11:48;95691.05;;;-2.79;86.97
52935;BME280;38802;50.198;19.796;2022-11-20T09:14:17;95689.65;;;-2.78;87.08
52935;BME280;38802;50.198;19.796;2022-11-20T09:16:46;95689.59;;;-2.76;87.06
52935;BME280;38802;50.198;19.796;2022-11-20T09:19:14;95693.30;;;-2.75;86.79
52935;BME280;38802;50.198;19.796;2022-11-20T09:22:02;95686.02;;;-2.76;86.76
52935;BME280;38802;50.198;19.796;2022-11-20T09:24:31;95686.18;;;-2.76;86.71
52935;BME280;38802;50.198;19.796;2022-11-20T09:27:01;95682.53;;;-2.74;86.96
52935;BME280;38802;50.198;19.796;2022-11-20T09:29:30;95679.67;;;-2.70;86.60
52935;BME280;38802;50.198;19.796;2022-11-20T09:31:58;95677.84;;;-2.67;86.76
52935;BME280;38802;50.198;19.796;2022-11-20T09:34:26;95679.79;;;-2.65;86.72
52935;BME280;38802;50.198;19.796;2022-11-20T09:36:54;95690.23;;;-2.63;86.82
52935;BME280;38802;50.198;19.796;2022-11-20T09:39:22;95688.14;;;-2.61;86.65
52935;BME280;38802;50.198;19.796;2022-11-20T09:56:19;95691.11;;;-2.37;86.23
52935;BME280;38802;50.198;19.796;2022-11-20T09:58:51;95683.51;;;-2.34;85.87
52935;BME280;38802;50.198;19.796;2022-11-20T10:01:26;95679.64;;;-2.31;86.05
52935;BME280;38802;50.198;19.796;2022-11-20T10:06:34;95691.27;;;-2.29;86.18
52935;BME280;38802;50.198;19.796;2022-11-20T10:20:38;95692.77;;;-2.24;86.18
52935;BME280;38802;50.198;19.796;2022-11-20T10:26:05;95687.65;;;-2.14;86.53
52935;BME280;38802;50.198;19.796;2022-11-20T10:31:56;95679.84;;;-2.07;86.48
52935;BME280;38802;50.198;19.796;2022-11-20T10:34:34;95682.33;;;-2.05;86.12
52935;BME280;38802;50.198;19.796;2022-11-20T10:37:13;95678.46;;;-2.06;86.22
52935;BME280;38802;50.198;19.796;2022-11-20T10:45:11;95663.65;;;-2.02;86.40
52935;BME280;38802;50.198;19.796;2022-11-20T10:47:44;95659.94;;;-1.99;86.22
52935;BME280;38802;50.198;19.796;2022-11-20T10:50:18;95658.09;;;-1.96;85.98
52935;BME280;38802;50.198;19.796;2022-11-20T10:55:34;95662.55;;;-1.88;86.13
52935;BME280;38802;50.198;19.796;2022-11-20T10:58:14;95657.88;;;-1.87;85.87
52935;BME280;38802;50.198;19.796;2022-11-20T11:00:42;95655.58;;;-1.84;85.77
52935;BME280;38802;50.198;19.796;2022-11-20T11:03:30;95650.23;;;-1.83;85.78
52935;BME280;38802;50.198;19.796;2022-11-20T11:06:03;95643.59;;;-1.79;86.30
52935;BME280;38802;50.198;19.796;2022-11-20T11:08:39;95637.91;;;-1.74;86.01
52935;BME280;38802;50.198;19.796;2022-11-20T11:11:23;95633.45;;;-1.73;86.17
52935;BME280;38802;50.198;19.796;2022-11-20T11:13:52;95632.79;;;-1.69;86.13
52935;BME280;38802;50.198;19.796;2022-11-20T11:16:26;95632.41;;;-1.65;86.42
52935;BME280;38802;50.198;19.796;2022-11-20T11:19:13;95630.62;;;-1.63;85.88
52935;BME280;38802;50.198;19.796;2022-11-20T11:21:58;95627.96;;;-1.60;86.23
52935;BME280;38802;50.198;19.796;2022-11-20T11:24:29;95628.73;;;-1.59;85.86
52935;BME280;38802;50.198;19.796;2022-11-20T11:27:14;95624.10;;;-1.57;85.92
52935;BME280;38802;50.198;19.796;2022-11-20T11:29:46;95619.96;;;-1.56;86.41
52935;BME280;38802;50.198;19.796;2022-11-20T11:32:18;95617.02;;;-1.52;86.69
52935;BME280;38802;50.198;19.796;2022-11-20T11:35:06;95612.80;;;-1.49;86.21
52935;BME280;38802;50.198;19.796;2022-11-20T11:37:36;95611.77;;;-1.45;86.68
52935;BME280;38802;50.198;19.796;2022-11-20T11:40:08;95609.04;;;-1.41;86.08
52935;BME280;38802;50.198;19.796;2022-11-20T11:42:59;95614.98;;;-1.37;86.50
52935;BME280;38802;50.198;19.796;2022-11-20T11:45:29;95610.03;;;-1.33;86.72
52935;BME280;38802;50.198;19.796;2022-11-20T11:48:00;95607.20;;;-1.30;86.55
52935;BME280;38802;50.198;19.796;2022-11-20T11:50:31;95603.89;;;-1.29;86.54
52935;BME280;38802;50.198;19.796;2022-11-20T11:53:29;95596.04;;;-1.25;86.22
52935;BME280;38802;50.198;19.796;2022-11-20T11:58:48;95586.86;;;-1.21;86.17
52935;BME280;38802;50.198;19.796;2022-11-20T12:01:47;95588.41;;;-1.22;86.16
52935;BME280;38802;50.198;19.796;2022-11-20T12:04:48;95587.39;;;-1.26;86.16
52935;BME280;38802;50.198;19.796;2022-11-20T12:10:23;95583.98;;;-1.22;86.29
52935;BME280;38802;50.198;19.796;2022-11-20T12:13:13;95585.23;;;-1.19;86.58
52935;BME280;38802;50.198;19.796;2022-11-20T12:15:45;95586.88;;;-1.18;85.94
52935;BME280;38802;50.198;19.796;2022-11-20T12:18:17;95585.09;;;-1.17;86.29
52935;BME280;38802;50.198;19.796;2022-11-20T12:21:17;95579.20;;;-1.18;85.95
52935;BME280;38802;50.198;19.796;2022-11-20T12:55:39;95576.48;;;-1.34;85.84
52935;BME280;38802;50.198;19.796;2022-11-20T13:00:56;95558.17;;;-1.36;85.46
52935;BME280;38802;50.198;19.796;2022-11-20T13:03:54;95550.75;;;-1.37;85.71
52935;BME280;38802;50.198;19.796;2022-11-20T13:06:24;95545.80;;;-1.37;85.71
52935;BME280;38802;50.198;19.796;2022-11-20T13:08:55;95548.16;;;-1.36;85.97
52935;BME280;38802;50.198;19.796;2022-11-20T13:19:34;95537.05;;;-1.50;85.18
52935;BME280;38802;50.198;19.796;2022-11-20T13:22:03;95535.54;;;-1.50;85.14
52935;BME280;38802;50.198;19.796;2022-11-20T13:24:32;95533.48;;;-1.54;84.98
52935;BME280;38802;50.198;19.796;2022-11-20T13:29:44;95526.23;;;-1.59;85.42
52935;BME280;38802;50.198;19.796;2022-11-20T13:34:55;95521.40;;;-1.65;85.33
52935;BME280;38802;50.198;19.796;2022-11-20T13:40:24;95520.42;;;-1.74;85.14
52935;BME280;38802;50.198;19.796;2022-11-20T13:45:28;95515.64;;;-1.81;85.12
52935;BME280;38802;50.198;19.796;2022-11-20T13:47:59;95517.83;;;-1.84;85.00
52935;BME280;38802;50.198;19.796;2022-11-20T14:01:24;95525.39;;;-1.86;85.22
52935;BME280;38802;50.198;19.796;2022-11-20T14:03:53;95523.44;;;-1.87;85.23
52935;BME280;38802;50.198;19.796;2022-11-20T14:06:45;95521.23;;;-1.88;85.65
52935;BME280;38802;50.198;19.796;2022-11-20T14:09:30;95521.62;;;-1.89;85.48
52935;BME280;38802;50.198;19.796;2022-11-20T14:11:59;95516.34;;;-1.89;85.63
52935;BME280;38802;50.198;19.796;2022-11-20T14:14:29;95514.19;;;-1.90;85.79
52935;BME280;38802;50.198;19.796;2022-11-20T14:17:06;95511.08;;;-1.93;85.71
52935;BME280;38802;50.198;19.796;2022-11-20T14:19:35;95506.52;;;-1.94;85.23
52935;BME280;38802;50.198;19.796;2022-11-20T14:22:23;95511.73;;;-1.96;85.44
52935;BME280;38802;50.198;19.796;2022-11-20T14:25:27;95506.92;;;-1.99;85.57
52935;BME280;38802;50.198;19.796;2022-11-20T14:27:57;95504.63;;;-2.01;85.76
52935;BME280;38802;50.198;19.796;2022-11-20T14:30:29;95505.42;;;-2.04;85.72
52935;BME280;38802;50.198;19.796;2022-11-20T14:33:04;95497.77;;;-2.07;85.55
52935;BME280;38802;50.198;19.796;2022-11-20T14:35:37;95499.63;;;-2.11;85.61
52935;BME280;38802;50.198;19.796;2022-11-20T14:38:12;95495.84;;;-2.13;85.58
52935;BME280;38802;50.198;19.796;2022-11-20T14:40:41;95498.66;;;-2.16;85.63
52935;BME280;38802;50.198;19.796;2022-11-20T14:46:08;95493.09;;;-2.22;85.49
52935;BME280;38802;50.198;19.796;2022-11-20T14:48:46;95490.14;;;-2.24;85.63
52935;BME280;38802;50.198;19.796;2022-11-20T14:51:38;95489.54;;;-2.26;85.68
52935;BME280;38802;50.198;19.796;2022-11-20T14:54:10;95486.12;;;-2.29;85.53
52935;BME280;38802;50.198;19.796;2022-11-20T14:56:39;95494.30;;;-2.33;85.61
52935;BME280;38802;50.198;19.796;2022-11-20T14:59:08;95491.23;;;-2.37;85.55
52935;BME280;38802;50.198;19.796;2022-11-20T15:01:37;95485.30;;;-2.41;85.58
52935;BME280;38802;50.198;19.796;2022-11-20T15:06:37;95481.66;;;-2.55;85.55
52935;BME280;38802;50.198;19.796;2022-11-20T15:09:13;95481.86;;;-2.61;85.64
52935;BME280;38802;50.198;19.796;2022-11-20T15:11:57;95477.20;;;-2.59;85.85
52935;BME280;38802;50.198;19.796;2022-11-20T15:14:28;95475.21;;;-2.60;85.77